Terminal Aerodrome Forecast
Issued by NWS Cleveland, OH

Home | Current Version | Previous Version | Text Only | Print | Product List | Glossary Off
Versions: 1 2 3 4 5 6 7 8 9 10 11 12 13 14 15 16 17 18 19 20 21

000
FTUS41 KCLE 251900 AAA
TAFTOL
TAF AMD
KTOL 251930Z 2520/2618 25016G24KT P6SM BKN015 OVC025
      TEMPO 2520/2524 BKN022
     FM260000 26005KT P6SM SCT025 BKN200
     FM260900 34005KT 4SM -RA BR BKN040 OVC100
     FM261100 34007KT 3SM -RA BR BKN008 OVC020
     FM261700 31009KT 5SM -RASN BR OVC015=

USA.gov is the U.S. government's official web portal to all federal, state and local government web resources and services.